This is the latest recevied weather packets stored in our database for station/object HS2XQB-3. If no packets are shown the sender has not sent any weather packets the latest 10 day(s).
| Time | Temp. | Humidity | Pressure | Rain* | Wind** | Luminosity | Snow |
|---|---|---|---|---|---|---|---|
| 1777733345 | 24.44° C | 73% | 1005 hPa | - | - | 0 W/m² | - |
| 1777731528 | 23.89° C | 62% | 1005 hPa | - | - | 0 W/m² | - |
| 1777729701 | 24.44° C | 69% | 1004 hPa | - | - | 0 W/m² | - |
| 1777727879 | 24.44° C | 65% | 1004 hPa | - | - | 0 W/m² | - |
| 1777726057 | 23.89° C | 61% | 1003 hPa | - | - | 0 W/m² | - |
| 1777724235 | 23.89° C | 60% | 1002 hPa | - | - | 0 W/m² | - |
| 1777722413 | 24.44° C | 63% | 1002 hPa | - | - | 0 W/m² | - |
| 1777720591 | 25° C | 59% | 1002 hPa | - | - | 0 W/m² | - |
| 1777718769 | 23.89° C | 47% | 1002 hPa | - | - | 0 W/m² | - |
| 1777716947 | 25° C | 46% | 1002 hPa | - | - | 0 W/m² | - |
| 1777715125 | 27.78° C | 55% | 1002 hPa | - | - | 0 W/m² | - |
| 1777713303 | 27.78° C | 50% | 1002 hPa | - | - | 0 W/m² | - |
| 1777711481 | 27.22° C | 49% | 1002 hPa | - | - | 0 W/m² | - |
| 1777709659 | 26.11° C | 46% | 1002 hPa | - | - | 0 W/m² | - |
| 1777707837 | 26.11° C | 45% | 1003 hPa | - | - | 0 W/m² | - |
| 1777706015 | 26.11° C | 45% | 1003 hPa | - | - | 0 W/m² | - |
| 1777704193 | 26.67° C | 45% | 1004 hPa | - | - | 0 W/m² | - |
| 1777702371 | 26.67° C | 45% | 1004 hPa | - | - | 0 W/m² | - |
| 1777700549 | 26.67° C | 46% | 1005 hPa | - | - | 0 W/m² | - |
| 1777698726 | 26.67° C | 46% | 1005 hPa | - | - | 0 W/m² | - |
| 1777696904 | 26.11° C | 47% | 1005 hPa | - | - | 0 W/m² | - |
| 1777695082 | 25.56° C | 51% | 1006 hPa | - | - | 0 W/m² | - |
| 1777693260 | 25° C | 56% | 1006 hPa | - | - | 0 W/m² | - |
| 1777691438 | 24.44° C | 46% | 1006 hPa | - | - | 0 W/m² | - |
| 1777689616 | 25.56° C | 46% | 1006 hPa | - | - | 0 W/m² | - |
* Rain since midnight (hover to see other rain measurements)
** Current wind speed in m/s (hover to see current wind gust speed)